This is the latest recevied weather packets stored in our database for station/object IU5GBO-13. If no packets are shown the sender has not sent any weather packets the latest 1 day(s).
| Time | Temp. | Humidity | Pressure | Rain* | Wind** | Luminosity | Snow |
|---|---|---|---|---|---|---|---|
| 1778102181 | 16.67° C | 81% | 1014.1 hPa | - | - | - | - |
| 1778101580 | 16.67° C | 81% | 1014.1 hPa | - | - | - | - |
| 1778100380 | 17.22° C | 81% | 1014.1 hPa | - | - | - | - |
| 1778099780 | 17.22° C | 81% | 1014.1 hPa | - | - | - | - |
| 1778094980 | 17.22° C | 81% | 1013.1 hPa | - | - | - | - |
| 1778094380 | 17.22° C | 81% | 1013.1 hPa | - | - | - | - |
| 1778093180 | 17.22° C | 81% | 1012.8 hPa | - | - | - | - |
| 1778092580 | 17.78° C | 80% | 1012.7 hPa | - | - | - | - |
| 1778091980 | 17.78° C | 80% | 1012.5 hPa | - | - | - | - |
| 1778091380 | 17.78° C | 79% | 1012.6 hPa | - | - | - | - |
| 1778090780 | 17.78° C | 79% | 1012.6 hPa | - | - | - | - |
| 1778090180 | 17.78° C | 78% | 1012.6 hPa | - | - | - | - |
| 1778088380 | 18.33° C | 77% | 1012.5 hPa | - | - | - | - |
| 1778087780 | 18.89° C | 76% | 1012.5 hPa | - | - | - | - |
| 1778087180 | 18.89° C | 75% | 1012.4 hPa | - | - | - | - |
| 1778086580 | 18.89° C | 74% | 1012.4 hPa | - | - | - | - |
| 1778082980 | 19.44° C | 71% | 1012.8 hPa | - | - | - | - |
| 1778082380 | 20° C | 69% | 1012.8 hPa | - | - | - | - |
| 1778081780 | 20° C | 69% | 1012.6 hPa | - | - | - | - |
| 1778081180 | 20° C | 69% | 1012.6 hPa | - | - | - | - |
| 1778078181 | 21.67° C | 65% | 1012.5 hPa | - | - | - | - |
| 1778073380 | 21.67° C | 66% | 1012.7 hPa | - | - | - | - |
| 1778072780 | 21.67° C | 65% | 1012.7 hPa | - | - | - | - |
| 1778071580 | 21.11° C | 65% | 1012.8 hPa | - | - | - | - |
| 1778070980 | 21.11° C | 66% | 1012.8 hPa | - | - | - | - |
* Rain since midnight (hover to see other rain measurements)
** Current wind speed in m/s (hover to see current wind gust speed)